Time;durP1;ratioP1;P1;durP2;ratioP2;P2;SDS_P1;SDS_P2;PMS_P1;PMS_P2;Temp;Humidity;BMP_temperature;BMP_pressure;BME280_temperature;BME280_humidity;BME280_pressure;Samples;Min_cycle;Max_cycle;Signal;HPM_P1;HPM_P2
2021/05/19 15:55:38;;;;;;;0.80;0.50;;;;;;;;;;5069484;28;20413;-6
2021/05/19 15:58:03;;;;;;;1.50;0.73;;;;;;;;;;5069996;28;20024;-5
2021/05/19 16:00:29;;;;;;;0.88;0.40;;;;;;;;;;5070016;28;20023;-3
2021/05/19 16:02:54;;;;;;;0.77;0.55;;;;;;;;;;5069597;28;20111;-4
2021/05/19 16:05:20;;;;;;;2.83;0.90;;;;;;;;;;5069665;28;20108;-4
2021/05/19 16:07:45;;;;;;;2.92;0.85;;;;;;;;;;5069499;28;20061;-4
2021/05/19 16:10:12;;;;;;;7.55;2.95;;;;;;;;;;5069822;28;20025;-4
2021/05/19 16:12:38;;;;;;;1.48;0.60;;;;;;;;;;5069680;28;20020;-5
2021/05/19 16:15:03;;;;;;;0.60;0.50;;;;;;;;;;5069261;28;20035;-5
2021/05/19 16:17:29;;;;;;;0.70;0.25;;;;;;;;;;5069466;28;20067;-5
2021/05/19 16:19:54;;;;;;;2.38;0.90;;;;;;;;;;5069280;28;20044;-4
2021/05/19 16:22:20;;;;;;;0.45;0.45;;;;;;;;;;5069329;28;20029;-5
2021/05/19 16:24:45;;;;;;;0.63;0.40;;;;;;;;;;5069340;28;20033;-4
2021/05/19 16:27:11;;;;;;;0.73;0.60;;;;;;;;;;5069132;28;20025;-5
2021/05/19 16:35:57;;;;;;;4.35;1.00;;;;;;;;;;5068775;28;20403;-5
2021/05/19 16:38:22;;;;;;;0.75;0.45;;;;;;;;;;5069031;28;20023;-5
2021/05/19 16:40:47;;;;;;;0.80;0.70;;;;;;;;;;5067653;28;20037;-4
2021/05/19 16:43:13;;;;;;;1.58;0.70;;;;;;;;;;5068823;28;20095;-5
2021/05/19 16:45:38;;;;;;;1.75;0.50;;;;;;;;;;5068774;28;20051;-3
2021/05/19 16:48:06;;;;;;;1.13;0.80;;;;;;;;;;5068589;28;20020;-5
2021/05/19 16:50:31;;;;;;;5.03;1.63;;;;;;;;;;5068726;28;20021;-4
2021/05/19 16:52:56;;;;;;;2.75;0.73;;;;;;;;;;5068902;28;20047;-4
2021/05/19 16:55:22;;;;;;;2.40;0.90;;;;;;;;;;5068384;28;20114;-5
2021/05/19 16:57:47;;;;;;;2.70;1.05;;;;;;;;;;5068368;28;20040;-4
2021/05/19 17:00:13;;;;;;;2.75;1.38;;;;;;;;;;5067331;28;20037;-4
2021/05/19 17:05:23;;;;;;;2.15;0.50;;;;;;;;;;5063859;28;20025;-5
2021/05/19 17:07:48;;;;;;;0.88;0.35;;;;;;;;;;5055100;28;20070;-5
2021/05/19 17:10:14;;;;;;;2.03;0.63;;;;;;;;;;5054885;28;20017;-5
2021/05/19 17:12:40;;;;;;;1.20;0.50;;;;;;;;;;5055271;28;20020;-5
2021/05/19 17:15:06;;;;;;;1.30;0.30;;;;;;;;;;5055033;28;20099;-4
2021/05/19 17:17:31;;;;;;;2.10;0.32;;;;;;;;;;5054985;28;20045;-5
2021/05/19 17:19:58;;;;;;;6.43;0.73;;;;;;;;;;5054920;28;20033;-5
2021/05/19 17:22:24;;;;;;;5.07;0.80;;;;;;;;;;5054875;28;20486;-5
2021/05/19 17:24:49;;;;;;;1.88;0.85;;;;;;;;;;5054685;28;20108;-6
2021/05/19 17:27:14;;;;;;;0.40;0.40;;;;;;;;;;5054892;28;20036;-5
2021/05/19 17:29:40;;;;;;;1.35;1.23;;;;;;;;;;5054994;28;20033;-5
2021/05/19 17:32:05;;;;;;;1.42;0.50;;;;;;;;;;5054739;28;20055;-5
2021/05/19 17:34:32;;;;;;;1.48;0.82;;;;;;;;;;5054873;28;20037;-4
2021/05/19 17:36:57;;;;;;;1.45;0.50;;;;;;;;;;5054078;28;20104;-5
2021/05/19 17:39:23;;;;;;;0.85;0.30;;;;;;;;;;5054849;28;20115;-5
2021/05/19 17:41:48;;;;;;;0.55;0.40;;;;;;;;;;5054530;28;20430;-6
2021/05/19 17:44:15;;;;;;;3.45;0.70;;;;;;;;;;5054499;28;20025;-4
2021/05/19 17:46:41;;;;;;;0.77;0.52;;;;;;;;;;5053042;28;20021;-5
2021/05/19 17:49:10;;;;;;;0.52;0.52;;;;;;;;;;5054401;28;20082;-5
2021/05/19 17:51:37;;;;;;;0.55;0.40;;;;;;;;;;5054413;28;20491;-4
2021/05/19 17:54:02;;;;;;;1.75;0.57;;;;;;;;;;5052650;28;20047;-5
2021/05/19 17:56:28;;;;;;;2.88;0.40;;;;;;;;;;5054016;28;20037;-5
2021/05/19 17:58:53;;;;;;;0.90;0.55;;;;;;;;;;5054434;28;20036;-6
2021/05/19 18:01:19;;;;;;;4.30;0.70;;;;;;;;;;5054066;28;20494;-5
2021/05/19 18:03:45;;;;;;;1.27;0.52;;;;;;;;;;5054076;28;20025;-5
2021/05/19 18:06:11;;;;;;;0.85;0.73;;;;;;;;;;5054422;28;20100;-5
2021/05/19 18:08:36;;;;;;;0.40;0.40;;;;;;;;;;5052679;28;20411;-4
2021/05/19 18:11:01;;;;;;;1.02;0.60;;;;;;;;;;5053882;28;20104;-4
2021/05/19 18:13:27;;;;;;;0.95;0.55;;;;;;;;;;5053881;28;20056;-5
2021/05/19 18:15:52;;;;;;;0.43;0.43;;;;;;;;;;5053709;28;20112;-5
2021/05/19 18:18:18;;;;;;;1.98;0.75;;;;;;;;;;5053186;28;20036;-5
2021/05/19 18:20:44;;;;;;;2.33;0.63;;;;;;;;;;5053793;28;20380;-5
2021/05/19 18:23:10;;;;;;;1.02;0.93;;;;;;;;;;5053658;28;20025;-4
2021/05/19 18:25:36;;;;;;;1.15;0.70;;;;;;;;;;5053715;28;20079;-5
2021/05/19 18:28:02;;;;;;;0.65;0.60;;;;;;;;;;5053577;28;20043;-4
2021/05/19 18:30:35;;;;;;;1.27;0.50;;;;;;;;;;5053599;28;20028;-5
2021/05/19 18:35:35;;;;;;;1.20;0.50;;;;;;;;;;5053647;28;20072;-4
2021/05/19 18:38:02;;;;;;;3.90;0.75;;;;;;;;;;5053650;28;20025;-5
2021/05/19 18:40:28;;;;;;;5.43;0.80;;;;;;;;;;5053734;28;20025;-5
2021/05/19 18:42:55;;;;;;;1.13;0.63;;;;;;;;;;5053241;28;20135;-5
2021/05/19 18:45:24;;;;;;;1.13;0.90;;;;;;;;;;5053536;28;20073;-5
2021/05/19 18:47:50;;;;;;;1.27;0.52;;;;;;;;;;5053218;28;20025;-6
2021/05/19 18:50:15;;;;;;;2.25;0.70;;;;;;;;;;5053487;28;20024;-5
2021/05/19 18:52:40;;;;;;;0.70;0.47;;;;;;;;;;5051799;28;20044;-5
2021/05/19 18:55:06;;;;;;;2.58;0.70;;;;;;;;;;5052981;28;20047;-5
2021/05/19 18:57:32;;;;;;;2.88;0.50;;;;;;;;;;5052925;28;20037;-5
2021/05/19 18:59:57;;;;;;;0.85;0.50;;;;;;;;;;5053009;28;20060;-4
2021/05/19 19:02:23;;;;;;;2.75;0.80;;;;;;;;;;5053033;28;20083;-4
2021/05/19 19:04:48;;;;;;;0.50;0.50;;;;;;;;;;5053087;28;20021;-3
2021/05/19 19:07:14;;;;;;;1.60;0.70;;;;;;;;;;5053199;28;20037;-4
2021/05/19 19:09:39;;;;;;;2.22;0.80;;;;;;;;;;5051504;28;20475;-4
2021/05/19 19:12:05;;;;;;;1.30;0.65;;;;;;;;;;5051234;28;20035;-6
2021/05/19 19:14:31;;;;;;;0.90;0.60;;;;;;;;;;5052576;28;20053;-4
2021/05/19 19:16:57;;;;;;;1.23;0.70;;;;;;;;;;5052755;28;20104;-6
2021/05/19 19:19:26;;;;;;;1.40;0.50;;;;;;;;;;5052729;28;20017;-6
2021/05/19 19:21:52;;;;;;;1.52;0.70;;;;;;;;;;5052568;28;20086;-4
2021/05/19 19:24:17;;;;;;;1.35;0.65;;;;;;;;;;5051406;28;20017;-4
2021/05/19 19:26:44;;;;;;;0.80;0.50;;;;;;;;;;5052544;28;20487;-4
2021/05/19 19:29:12;;;;;;;1.40;0.70;;;;;;;;;;5052692;28;20135;-5
2021/05/19 19:31:37;;;;;;;0.63;0.57;;;;;;;;;;5052672;28;20360;-4
2021/05/19 19:34:03;;;;;;;1.55;0.75;;;;;;;;;;5052247;28;20028;-4
2021/05/19 19:36:28;;;;;;;2.70;0.50;;;;;;;;;;5052551;28;20033;-4
2021/05/19 19:38:54;;;;;;;2.65;0.50;;;;;;;;;;5052395;28;20410;-4
2021/05/19 19:41:21;;;;;;;1.65;0.55;;;;;;;;;;5052661;28;20040;-4
2021/05/19 19:43:46;;;;;;;2.53;0.40;;;;;;;;;;5052364;28;20021;-4
2021/05/19 19:46:12;;;;;;;2.50;0.50;;;;;;;;;;5052309;28;20021;-4
2021/05/19 19:48:43;;;;;;;0.60;0.60;;;;;;;;;;5052655;28;20025;-6
2021/05/19 19:51:12;;;;;;;1.88;0.57;;;;;;;;;;5052585;28;20029;-4
2021/05/19 19:53:39;;;;;;;0.85;0.40;;;;;;;;;;5052075;28;20134;-5
2021/05/19 19:56:05;;;;;;;0.70;0.70;;;;;;;;;;5052605;28;20052;-4
2021/05/19 19:58:30;;;;;;;1.35;0.65;;;;;;;;;;5052236;28;20484;-4
2021/05/19 20:00:58;;;;;;;1.15;1.02;;;;;;;;;;5034295;28;20044;-5
2021/05/19 20:03:32;;;;;;;0.55;0.55;;;;;;;;;;5052212;28;20015;-4
2021/05/19 20:05:58;;;;;;;0.68;0.68;;;;;;;;;;5052116;28;20388;-4
2021/05/19 20:08:23;;;;;;;0.60;0.52;;;;;;;;;;5052440;28;20013;-4
2021/05/19 20:10:49;;;;;;;0.68;0.35;;;;;;;;;;5052016;28;20485;-4
2021/05/19 20:13:15;;;;;;;2.42;0.75;;;;;;;;;;5052138;28;20534;-4
2021/05/19 20:15:40;;;;;;;0.60;0.40;;;;;;;;;;5051817;28;20072;-5
2021/05/19 20:18:06;;;;;;;1.55;1.08;;;;;;;;;;5052187;28;20024;-4
2021/05/19 20:20:31;;;;;;;0.70;0.43;;;;;;;;;;5052115;28;20033;-4
2021/05/19 20:22:57;;;;;;;3.28;0.75;;;;;;;;;;5051750;28;20017;-4
2021/05/19 20:25:22;;;;;;;0.43;0.43;;;;;;;;;;5052059;28;20036;-6
2021/05/19 20:27:48;;;;;;;2.55;0.60;;;;;;;;;;5051876;28;20021;-5
2021/05/19 20:30:16;;;;;;;0.45;0.45;;;;;;;;;;5050652;28;20100;-4
2021/05/19 20:32:41;;;;;;;0.68;0.50;;;;;;;;;;5052146;28;20356;-5
2021/05/19 20:35:09;;;;;;;0.40;0.40;;;;;;;;;;5051628;28;20048;-5
2021/05/19 20:37:34;;;;;;;0.30;0.30;;;;;;;;;;5051860;28;20024;-5
2021/05/19 20:40:01;;;;;;;1.20;0.63;;;;;;;;;;5052063;28;20093;-6
2021/05/19 20:42:26;;;;;;;0.43;0.30;;;;;;;;;;5055594;28;20013;-4
2021/05/19 20:44:52;;;;;;;1.35;0.80;;;;;;;;;;5055473;28;20186;-5
2021/05/19 20:47:17;;;;;;;0.95;0.52;;;;;;;;;;5055465;28;20017;-4
2021/05/19 20:49:43;;;;;;;2.00;1.20;;;;;;;;;;5054213;28;20163;-5
2021/05/19 20:52:08;;;;;;;0.82;0.65;;;;;;;;;;5055499;28;20107;-5
2021/05/19 20:54:34;;;;;;;1.00;0.80;;;;;;;;;;5055317;28;20056;-4
2021/05/19 20:56:59;;;;;;;4.03;0.98;;;;;;;;;;5055325;28;20495;-6
2021/05/19 20:59:25;;;;;;;0.82;0.63;;;;;;;;;;5055243;28;20605;-6
2021/05/19 21:01:50;;;;;;;1.63;1.00;;;;;;;;;;5055270;28;20027;-4
2021/05/19 21:04:16;;;;;;;1.00;0.70;;;;;;;;;;5055235;28;20029;-5
2021/05/19 21:06:44;;;;;;;1.70;0.82;;;;;;;;;;5055035;28;20013;-5
2021/05/19 21:09:10;;;;;;;1.42;1.13;;;;;;;;;;5055226;28;20029;-4
2021/05/19 21:11:38;;;;;;;1.90;0.88;;;;;;;;;;5053840;28;20078;-4
2021/05/19 21:14:07;;;;;;;1.83;0.75;;;;;;;;;;5054859;28;20044;-5
2021/05/19 21:16:33;;;;;;;3.13;1.35;;;;;;;;;;5055062;28;20029;-5
2021/05/19 21:18:59;;;;;;;4.13;1.25;;;;;;;;;;5054949;28;20033;-5
2021/05/19 21:21:24;;;;;;;2.35;0.90;;;;;;;;;;5055001;28;20017;-5
2021/05/19 21:23:49;;;;;;;1.60;1.08;;;;;;;;;;5055004;28;20040;-4
2021/05/19 21:26:15;;;;;;;3.15;1.70;;;;;;;;;;5054878;28;20106;-5
2021/05/19 21:28:40;;;;;;;5.55;1.17;;;;;;;;;;5055119;28;20055;-6
2021/05/19 21:31:06;;;;;;;4.43;1.85;;;;;;;;;;5054730;28;20013;-6
2021/05/19 21:33:32;;;;;;;3.33;1.88;;;;;;;;;;5054515;28;20029;-6
2021/05/19 21:36:06;;;;;;;3.15;1.48;;;;;;;;;;5054639;28;20029;-5
2021/05/19 21:38:31;;;;;;;6.03;1.58;;;;;;;;;;5054687;28;20071;-5
2021/05/19 21:40:56;;;;;;;5.47;1.67;;;;;;;;;;5054511;28;20025;-6
2021/05/19 21:43:22;;;;;;;2.05;0.85;;;;;;;;;;5054805;28;20369;-6
2021/05/19 21:45:47;;;;;;;1.52;0.93;;;;;;;;;;5054696;28;20397;-4
2021/05/19 21:48:13;;;;;;;3.20;1.00;;;;;;;;;;5054403;28;20025;-5
2021/05/19 21:50:38;;;;;;;2.03;1.30;;;;;;;;;;5054471;28;20017;-5
2021/05/19 21:53:03;;;;;;;1.67;0.80;;;;;;;;;;5053010;28;20070;-6
2021/05/19 21:55:29;;;;;;;1.15;0.68;;;;;;;;;;5054012;28;20049;-4
2021/05/19 21:57:54;;;;;;;1.75;1.20;;;;;;;;;;5054456;28;20029;-6
2021/05/19 22:00:35;;;;;;;1.45;1.00;;;;;;;;;;5054494;28;20036;-5
2021/05/19 22:03:00;;;;;;;1.85;1.00;;;;;;;;;;5052691;28;20029;-5
2021/05/19 22:05:26;;;;;;;2.40;1.10;;;;;;;;;;5052859;28;20028;-5
2021/05/19 22:07:51;;;;;;;2.25;0.88;;;;;;;;;;5054355;28;20055;-5
2021/05/19 22:10:17;;;;;;;1.08;0.98;;;;;;;;;;5053974;28;20028;-5
2021/05/19 22:12:42;;;;;;;2.08;0.90;;;;;;;;;;5053860;28;20040;-4
2021/05/19 22:15:08;;;;;;;1.73;0.93;;;;;;;;;;5054199;28;20037;-4
2021/05/19 22:17:34;;;;;;;3.03;0.77;;;;;;;;;;5054145;28;20551;-5
2021/05/19 22:23:13;;;;;;;3.97;1.70;;;;;;;;;;5052286;28;20045;-4
2021/05/19 22:26:12;;;;;;;2.78;1.42;;;;;;;;;;5053703;28;20025;-5
2021/05/19 22:28:26;;;;;;;1.75;1.08;;;;;;;;;;5053641;28;20056;-4
2021/05/19 22:30:52;;;;;;;3.30;2.08;;;;;;;;;;5053479;28;20021;-5
2021/05/19 22:33:18;;;;;;;3.03;1.90;;;;;;;;;;5053576;28;20025;-5
2021/05/19 22:35:43;;;;;;;1.85;1.30;;;;;;;;;;5053622;28;20029;-5
2021/05/19 22:38:09;;;;;;;2.10;1.23;;;;;;;;;;5053455;28;20563;-7
2021/05/19 22:40:34;;;;;;;2.80;1.33;;;;;;;;;;5053545;28;20029;-5
2021/05/19 22:43:00;;;;;;;4.57;1.35;;;;;;;;;;5053217;28;20067;-5
2021/05/19 22:45:25;;;;;;;1.65;1.30;;;;;;;;;;5053351;28;20013;-5
2021/05/19 22:47:50;;;;;;;2.38;1.52;;;;;;;;;;5053271;28;20373;-6
2021/05/19 22:50:16;;;;;;;9.40;1.77;;;;;;;;;;5053235;28;20025;-6
2021/05/19 22:52:41;;;;;;;3.78;1.65;;;;;;;;;;5053124;28;20035;-5
2021/05/19 22:55:07;;;;;;;3.25;1.88;;;;;;;;;;5052891;28;20063;-6
2021/05/19 22:57:32;;;;;;;1.75;1.25;;;;;;;;;;5053039;28;20040;-5
2021/05/19 22:59:58;;;;;;;2.58;1.73;;;;;;;;;;5053244;28;20021;-6
2021/05/19 23:02:23;;;;;;;2.85;1.40;;;;;;;;;;5053291;28;20045;-4
2021/05/19 23:04:48;;;;;;;1.88;1.15;;;;;;;;;;5052433;28;20151;-4
2021/05/19 23:07:14;;;;;;;1.95;1.30;;;;;;;;;;5052955;28;20029;-5
2021/05/19 23:09:39;;;;;;;1.23;0.95;;;;;;;;;;5052923;28;20017;-5
2021/05/19 23:12:05;;;;;;;1.55;1.00;;;;;;;;;;5052779;28;20472;-6
2021/05/19 23:14:30;;;;;;;2.45;1.38;;;;;;;;;;5053001;28;20033;-6
2021/05/19 23:16:56;;;;;;;2.63;1.42;;;;;;;;;;5052970;28;20029;-5
2021/05/19 23:19:21;;;;;;;1.13;0.90;;;;;;;;;;5052841;28;20023;-5
2021/05/19 23:21:46;;;;;;;3.47;1.17;;;;;;;;;;5052838;28;20393;-6
2021/05/19 23:24:12;;;;;;;1.38;1.10;;;;;;;;;;5052648;28;20121;-5
2021/05/19 23:26:37;;;;;;;0.98;0.90;;;;;;;;;;5052988;28;20025;-6
2021/05/19 23:29:03;;;;;;;1.08;0.75;;;;;;;;;;5052442;28;20621;-5
2021/05/19 23:31:28;;;;;;;1.17;0.93;;;;;;;;;;5052628;28;20029;-6
2021/05/19 23:33:53;;;;;;;5.50;1.30;;;;;;;;;;5052544;28;20017;-4
2021/05/19 23:36:19;;;;;;;1.00;0.90;;;;;;;;;;5052760;28;20105;-6
2021/05/19 23:38:44;;;;;;;2.45;1.17;;;;;;;;;;5051160;28;20022;-6
2021/05/19 23:41:09;;;;;;;1.23;0.93;;;;;;;;;;5052496;28;20503;-5
2021/05/19 23:43:35;;;;;;;1.25;1.05;;;;;;;;;;5052400;28;20021;-5
2021/05/19 23:46:00;;;;;;;2.03;0.82;;;;;;;;;;5052529;28;20131;-5
2021/05/19 23:48:26;;;;;;;5.47;1.13;;;;;;;;;;5052442;28;20024;-6
2021/05/19 23:50:54;;;;;;;4.82;1.10;;;;;;;;;;5052560;28;20119;-5
2021/05/19 23:53:20;;;;;;;2.15;1.27;;;;;;;;;;5052106;28;20008;-4
2021/05/19 23:55:45;;;;;;;3.00;0.98;;;;;;;;;;5052111;28;20139;-5
2021/05/19 23:58:10;;;;;;;3.28;0.85;;;;;;;;;;5052263;28;20036;-5
